Time;durP1;ratioP1;P1;durP2;ratioP2;P2;SDS_P1;SDS_P2;PMS_P1;PMS_P2;Temp;Humidity;BMP_temperature;BMP_pressure;BME280_temperature;BME280_humidity;BME280_pressure;Samples;Min_cycle;Max_cycle;Signal;HPM_P1;HPM_P2
2022/12/30 00:01:23;;;;;;;22.05;13.68;;;;;;;;;;5034030;28;20380;-79
2022/12/30 00:03:48;;;;;;;23.10;15.00;;;;;;;;;;5052651;28;20086;-79
2022/12/30 00:06:15;;;;;;;22.58;14.38;;;;;;;;;;5054189;28;20419;-79
2022/12/30 00:08:47;;;;;;;21.92;14.30;;;;;;;;;;5054337;28;20064;-79
2022/12/30 00:11:20;;;;;;;24.40;14.98;;;;;;;;;;5036873;28;20483;-79
2022/12/30 00:33:08;;;;;;;20.73;12.85;;;;;;;;;;5038270;28;20041;-80
2022/12/30 00:35:37;;;;;;;20.80;13.75;;;;;;;;;;5024184;28;20124;-80
2022/12/30 00:38:02;;;;;;;19.88;13.18;;;;;;;;;;5040767;28;20024;-80
2022/12/30 00:40:28;;;;;;;19.52;13.45;;;;;;;;;;5057456;28;20372;-80
2022/12/30 00:43:09;;;;;;;22.50;14.18;;;;;;;;;;5055346;28;20024;-80
2022/12/30 00:45:35;;;;;;;19.48;13.02;;;;;;;;;;5044102;28;20032;-80
2022/12/30 00:48:01;;;;;;;18.52;12.85;;;;;;;;;;5060591;28;20166;-80
2022/12/30 00:56:09;;;;;;;18.08;12.57;;;;;;;;;;5019192;28;20033;-80
2022/12/30 00:58:34;;;;;;;21.00;12.50;;;;;;;;;;5005638;28;20034;-80
2022/12/30 01:01:00;;;;;;;18.40;11.88;;;;;;;;;;5032370;28;20032;-80
2022/12/30 01:03:25;;;;;;;17.77;11.77;;;;;;;;;;5020573;28;20776;-80
2022/12/30 01:05:51;;;;;;;17.63;11.57;;;;;;;;;;5016334;28;20029;-80
2022/12/30 01:08:16;;;;;;;16.50;11.85;;;;;;;;;;5037190;28;20159;-79
2022/12/30 01:10:42;;;;;;;16.90;11.82;;;;;;;;;;5015311;28;20030;-80
2022/12/30 01:13:07;;;;;;;17.48;10.50;;;;;;;;;;5005043;28;20041;-79
2022/12/30 01:15:33;;;;;;;15.48;11.38;;;;;;;;;;5018421;28;20033;-80
2022/12/30 01:17:58;;;;;;;17.35;11.45;;;;;;;;;;5013513;28;20085;-79
2022/12/30 01:20:24;;;;;;;15.32;11.23;;;;;;;;;;5021272;28;20571;-79
2022/12/30 01:22:49;;;;;;;15.50;10.93;;;;;;;;;;5035543;28;20523;-80
2022/12/30 01:25:15;;;;;;;15.52;10.80;;;;;;;;;;5038057;28;20067;-79
2022/12/30 01:27:40;;;;;;;16.70;11.50;;;;;;;;;;5019539;28;20470;-80
2022/12/30 01:30:06;;;;;;;15.48;10.82;;;;;;;;;;5056329;28;20077;-78
2022/12/30 01:32:33;;;;;;;17.05;11.30;;;;;;;;;;5038312;28;20366;-78
2022/12/30 01:34:58;;;;;;;16.48;11.90;;;;;;;;;;5054494;28;20063;-78
2022/12/30 01:37:24;;;;;;;16.80;11.65;;;;;;;;;;5035615;28;20087;-79
2022/12/30 01:39:49;;;;;;;16.25;12.35;;;;;;;;;;5052669;28;20814;-80
2022/12/30 01:42:25;;;;;;;18.15;12.43;;;;;;;;;;5050113;28;20037;-79
2022/12/30 01:44:50;;;;;;;16.35;11.60;;;;;;;;;;5052326;28;20044;-79
2022/12/30 01:47:16;;;;;;;19.50;12.57;;;;;;;;;;5051480;28;20032;-79
2022/12/30 01:52:26;;;;;;;18.02;12.25;;;;;;;;;;5042678;28;20040;-80
2022/12/30 01:54:52;;;;;;;19.00;11.93;;;;;;;;;;5050437;28;20029;-80
2022/12/30 01:57:17;;;;;;;17.55;11.27;;;;;;;;;;5033551;28;20040;-80
2022/12/30 01:59:43;;;;;;;17.50;11.63;;;;;;;;;;5016801;28;20484;-80
2022/12/30 02:02:09;;;;;;;19.15;12.85;;;;;;;;;;5035064;28;20029;-80
2022/12/30 02:04:34;;;;;;;19.48;12.10;;;;;;;;;;5020654;28;20093;-80
2022/12/30 02:07:13;;;;;;;19.33;12.55;;;;;;;;;;5056304;28;20033;-80
2022/12/30 02:09:38;;;;;;;19.58;12.20;;;;;;;;;;5054907;28;20021;-80
2022/12/30 02:12:04;;;;;;;21.45;12.68;;;;;;;;;;5054773;28;20032;-80
2022/12/30 02:14:30;;;;;;;17.67;11.73;;;;;;;;;;5055364;28;20044;-80
2022/12/30 02:16:59;;;;;;;17.15;11.00;;;;;;;;;;5056495;28;20049;-80
2022/12/30 02:19:43;;;;;;;20.20;12.38;;;;;;;;;;5019316;28;20083;-79
2022/12/30 02:22:09;;;;;;;18.33;11.82;;;;;;;;;;5056411;28;20040;-79
2022/12/30 02:27:31;;;;;;;16.90;11.05;;;;;;;;;;5034421;28;20420;-80
2022/12/30 02:30:12;;;;;;;16.50;11.45;;;;;;;;;;5048474;28;20040;-80
2022/12/30 02:32:47;;;;;;;16.52;11.13;;;;;;;;;;5038844;28;20445;-80
2022/12/30 02:35:22;;;;;;;15.85;10.25;;;;;;;;;;5035881;28;20565;-80
2022/12/30 02:38:08;;;;;;;15.48;11.15;;;;;;;;;;5053665;28;20442;-79
2022/12/30 02:44:36;;;;;;;17.65;11.35;;;;;;;;;;5036473;28;20052;-79
2022/12/30 02:46:10;;;;;;;14.25;10.10;;;;;;;;;;5041133;28;20489;-80
2022/12/30 02:48:36;;;;;;;15.55;11.13;;;;;;;;;;5040318;28;20036;-80
2022/12/30 02:53:46;;;;;;;14.90;9.77;;;;;;;;;;5046794;28;19952;-80
2022/12/30 02:56:11;;;;;;;16.10;10.98;;;;;;;;;;5041039;28;20476;-80
2022/12/30 03:04:19;;;;;;;14.20;8.88;;;;;;;;;;5058683;28;20048;-80
2022/12/30 03:06:57;;;;;;;13.20;9.23;;;;;;;;;;5039137;28;20143;-80
2022/12/30 03:09:35;;;;;;;14.43;10.23;;;;;;;;;;5060234;28;20032;-80
2022/12/30 03:12:00;;;;;;;13.00;9.82;;;;;;;;;;5055155;28;20048;-80
2022/12/30 03:14:35;;;;;;;13.77;9.48;;;;;;;;;;5057883;28;20032;-79
2022/12/30 03:17:02;;;;;;;13.07;8.90;;;;;;;;;;5038255;28;20075;-79
2022/12/30 03:19:28;;;;;;;15.07;10.38;;;;;;;;;;5056456;28;20036;-79
2022/12/30 03:21:54;;;;;;;;;;;;;;;;;;5039635;28;20115;-80
2022/12/30 03:27:05;;;;;;;14.18;9.75;;;;;;;;;;5043035;28;20064;-80
2022/12/30 03:29:32;;;;;;;13.07;9.20;;;;;;;;;;5037978;28;20057;-80
2022/12/30 03:31:58;;;;;;;12.95;9.75;;;;;;;;;;5040571;28;20522;-81
2022/12/30 03:34:24;;;;;;;12.57;9.23;;;;;;;;;;5037526;28;20025;-79
2022/12/30 03:36:50;;;;;;;12.55;9.32;;;;;;;;;;5039934;28;20020;-79
2022/12/30 03:39:19;;;;;;;12.55;8.13;;;;;;;;;;5021385;28;20116;-81
2022/12/30 03:41:45;;;;;;;12.35;8.55;;;;;;;;;;5040284;28;20496;-79
2022/12/30 03:44:11;;;;;;;11.52;8.38;;;;;;;;;;5016005;28;20040;-79
2022/12/30 03:46:38;;;;;;;11.63;8.55;;;;;;;;;;5034321;28;20037;-80
2022/12/30 03:49:03;;;;;;;12.48;8.32;;;;;;;;;;5034240;28;20029;-80
2022/12/30 03:51:29;;;;;;;12.00;8.50;;;;;;;;;;5036224;28;20098;-80
2022/12/30 03:53:54;;;;;;;12.07;8.80;;;;;;;;;;5035466;28;20032;-79
2022/12/30 03:56:19;;;;;;;11.80;8.10;;;;;;;;;;5035360;28;20033;-79
2022/12/30 03:58:45;;;;;;;10.50;8.07;;;;;;;;;;5053358;28;20025;-80
2022/12/30 04:03:55;;;;;;;10.00;7.63;;;;;;;;;;5054404;28;20037;-79
2022/12/30 04:06:20;;;;;;;10.95;7.80;;;;;;;;;;5055418;28;20032;-79
2022/12/30 04:08:45;;;;;;;11.85;7.82;;;;;;;;;;5036282;28;20389;-80
2022/12/30 04:11:11;;;;;;;10.55;7.30;;;;;;;;;;5056082;28;20029;-80
2022/12/30 04:13:36;;;;;;;9.52;6.68;;;;;;;;;;5034705;28;20715;-79
2022/12/30 04:16:02;;;;;;;10.73;7.93;;;;;;;;;;5034838;28;20116;-79
2022/12/30 04:21:11;;;;;;;11.60;7.47;;;;;;;;;;5042071;28;20047;-79
2022/12/30 04:23:37;;;;;;;9.73;6.57;;;;;;;;;;5039934;28;20029;-80
2022/12/30 04:26:02;;;;;;;11.73;7.60;;;;;;;;;;5051916;28;20040;-79
2022/12/30 04:28:28;;;;;;;9.70;7.47;;;;;;;;;;5033503;28;20039;-78
2022/12/30 04:30:53;;;;;;;11.05;7.85;;;;;;;;;;5054976;28;20399;-79
2022/12/30 04:33:19;;;;;;;10.77;7.78;;;;;;;;;;5055167;28;20407;-79
2022/12/30 04:35:44;;;;;;;12.40;8.68;;;;;;;;;;5053860;28;20056;-81
2022/12/30 04:40:54;;;;;;;13.40;9.07;;;;;;;;;;5055878;28;20032;-80
2022/12/30 04:46:03;;;;;;;14.07;9.85;;;;;;;;;;5057827;28;20036;-80
2022/12/30 04:48:28;;;;;;;13.05;9.88;;;;;;;;;;5056647;28;20032;-80
2022/12/30 04:50:54;;;;;;;15.95;10.80;;;;;;;;;;5033236;28;20129;-80
2022/12/30 04:53:19;;;;;;;13.40;9.45;;;;;;;;;;5033465;28;20025;-81
2022/12/30 04:55:45;;;;;;;13.65;10.05;;;;;;;;;;5053045;28;20403;-79
2022/12/30 05:00:55;;;;;;;15.70;11.25;;;;;;;;;;5050123;28;20034;-79
2022/12/30 05:03:20;;;;;;;15.57;11.70;;;;;;;;;;5050590;28;20040;-78
2022/12/30 05:05:46;;;;;;;16.80;11.60;;;;;;;;;;5032810;28;20047;-79
2022/12/30 05:08:11;;;;;;;18.70;12.32;;;;;;;;;;5050597;28;20039;-78
2022/12/30 05:10:37;;;;;;;18.30;11.52;;;;;;;;;;5033256;28;20087;-79
2022/12/30 05:13:03;;;;;;;16.73;11.65;;;;;;;;;;5033231;28;20040;-79
2022/12/30 05:15:28;;;;;;;14.55;10.82;;;;;;;;;;5051172;28;20065;-78
2022/12/30 05:17:53;;;;;;;20.15;12.45;;;;;;;;;;5051104;28;20052;-79
2022/12/30 05:20:19;;;;;;;17.17;12.15;;;;;;;;;;5051331;28;20849;-78
2022/12/30 05:22:44;;;;;;;16.73;11.25;;;;;;;;;;5050787;28;20035;-78
2022/12/30 05:27:54;;;;;;;16.58;11.55;;;;;;;;;;5050341;28;20037;-78
2022/12/30 05:30:19;;;;;;;17.15;12.35;;;;;;;;;;5028802;28;20045;-78
2022/12/30 05:32:45;;;;;;;19.85;13.40;;;;;;;;;;5032797;28;20029;-79
2022/12/30 05:35:10;;;;;;;17.65;12.18;;;;;;;;;;5050287;28;20057;-79
2022/12/30 05:37:36;;;;;;;19.27;12.57;;;;;;;;;;5035216;28;20446;-78
2022/12/30 05:40:01;;;;;;;17.95;12.85;;;;;;;;;;5036589;28;20450;-78
2022/12/30 05:42:27;;;;;;;19.27;13.27;;;;;;;;;;5054462;28;20033;-78
2022/12/30 05:44:52;;;;;;;18.95;12.35;;;;;;;;;;5036485;28;20033;-78
2022/12/30 05:47:18;;;;;;;18.92;11.32;;;;;;;;;;5054511;28;20111;-79
2022/12/30 05:49:43;;;;;;;19.35;12.02;;;;;;;;;;5036607;28;20044;-79
2022/12/30 05:52:09;;;;;;;17.65;11.70;;;;;;;;;;5054289;28;20040;-79
2022/12/30 05:54:34;;;;;;;17.27;11.13;;;;;;;;;;5054109;28;20066;-79
2022/12/30 05:57:00;;;;;;;19.25;13.35;;;;;;;;;;5054372;28;20132;-79
2022/12/30 05:59:25;;;;;;;24.05;13.85;;;;;;;;;;5053993;28;20033;-79
2022/12/30 06:01:51;;;;;;;17.48;12.35;;;;;;;;;;5054267;28;20514;-79
2022/12/30 06:04:17;;;;;;;17.02;11.57;;;;;;;;;;5053897;28;20036;-79
2022/12/30 06:06:43;;;;;;;18.17;11.75;;;;;;;;;;5053867;28;20025;-79
2022/12/30 06:09:08;;;;;;;22.15;14.25;;;;;;;;;;5019613;28;20033;-80
2022/12/30 06:11:33;;;;;;;19.13;13.05;;;;;;;;;;5053979;28;20546;-80
2022/12/30 06:13:59;;;;;;;19.33;13.10;;;;;;;;;;5036090;28;20063;-79
2022/12/30 06:16:24;;;;;;;17.33;12.15;;;;;;;;;;5053725;28;20111;-79
2022/12/30 06:18:50;;;;;;;18.85;12.85;;;;;;;;;;5053550;28;20489;-80
2022/12/30 06:21:15;;;;;;;17.00;12.70;;;;;;;;;;5053877;28;20043;-79
2022/12/30 06:23:41;;;;;;;18.75;13.30;;;;;;;;;;5053907;28;20051;-81
2022/12/30 06:26:06;;;;;;;16.48;11.82;;;;;;;;;;5053677;28;20033;-79
2022/12/30 06:28:32;;;;;;;17.55;12.60;;;;;;;;;;5035546;28;20079;-79
2022/12/30 06:30:57;;;;;;;14.95;11.73;;;;;;;;;;5035886;28;20112;-79
2022/12/30 06:33:23;;;;;;;16.75;12.02;;;;;;;;;;5053569;28;20064;-78
2022/12/30 06:35:48;;;;;;;16.85;12.05;;;;;;;;;;5035936;28;20037;-79
2022/12/30 06:38:14;;;;;;;15.77;11.48;;;;;;;;;;5053390;28;20518;-79
2022/12/30 06:40:39;;;;;;;14.98;11.15;;;;;;;;;;5018878;28;20028;-79
2022/12/30 06:43:05;;;;;;;17.17;11.40;;;;;;;;;;5053366;28;20510;-78
2022/12/30 06:45:30;;;;;;;20.83;13.52;;;;;;;;;;5035531;28;20041;-79
2022/12/30 06:47:55;;;;;;;18.90;12.27;;;;;;;;;;5034681;28;20025;-79
2022/12/30 06:50:21;;;;;;;20.13;14.35;;;;;;;;;;5053038;28;20032;-79
2022/12/30 06:52:46;;;;;;;21.60;13.50;;;;;;;;;;5053342;28;20033;-78
2022/12/30 06:55:12;;;;;;;23.42;13.82;;;;;;;;;;5053320;28;20033;-79
2022/12/30 06:57:37;;;;;;;22.08;15.73;;;;;;;;;;5053276;28;20092;-80
2022/12/30 07:00:04;;;;;;;21.55;15.02;;;;;;;;;;5034928;28;20504;-80
2022/12/30 07:02:29;;;;;;;21.80;14.55;;;;;;;;;;5053176;28;20037;-78
2022/12/30 07:04:55;;;;;;;23.95;14.60;;;;;;;;;;5052880;28;20373;-79
2022/12/30 07:07:20;;;;;;;25.33;15.40;;;;;;;;;;5052704;28;20039;-79
2022/12/30 07:12:30;;;;;;;24.50;15.43;;;;;;;;;;5053009;28;20045;-78
2022/12/30 07:14:55;;;;;;;23.77;16.10;;;;;;;;;;5052611;28;20025;-80
2022/12/30 07:17:21;;;;;;;25.00;16.85;;;;;;;;;;5052441;28;20542;-78
2022/12/30 07:19:48;;;;;;;23.38;15.45;;;;;;;;;;5052529;28;20047;-79
2022/12/30 07:22:15;;;;;;;23.83;16.38;;;;;;;;;;5052696;28;20047;-79
2022/12/30 07:24:41;;;;;;;28.88;16.42;;;;;;;;;;5034886;28;20059;-79
2022/12/30 07:27:08;;;;;;;26.42;16.67;;;;;;;;;;5034728;28;20045;-80
2022/12/30 07:29:33;;;;;;;24.55;15.75;;;;;;;;;;5034809;28;20036;-80
2022/12/30 07:31:59;;;;;;;24.73;15.80;;;;;;;;;;5034692;28;20048;-79
2022/12/30 07:34:24;;;;;;;27.08;17.05;;;;;;;;;;5034539;28;20488;-78
2022/12/30 07:39:34;;;;;;;23.67;16.00;;;;;;;;;;5034269;28;20044;-79
2022/12/30 07:41:59;;;;;;;24.20;15.43;;;;;;;;;;5034795;28;20047;-80
2022/12/30 07:44:25;;;;;;;24.80;16.33;;;;;;;;;;5052161;28;20032;-80
2022/12/30 07:46:50;;;;;;;24.80;16.63;;;;;;;;;;5052178;28;20041;-80
2022/12/30 07:49:16;;;;;;;25.20;16.20;;;;;;;;;;5051974;28;20049;-78
2022/12/30 07:51:41;;;;;;;26.88;16.83;;;;;;;;;;5052043;28;20036;-79
2022/12/30 07:56:51;;;;;;;26.65;16.88;;;;;;;;;;5051837;28;20504;-79
2022/12/30 08:02:01;;;;;;;29.60;18.60;;;;;;;;;;5051901;28;20045;-78
2022/12/30 08:04:26;;;;;;;29.27;17.85;;;;;;;;;;5033901;28;20500;-79
2022/12/30 08:06:51;;;;;;;25.60;17.33;;;;;;;;;;5033806;28;20032;-79
2022/12/30 08:09:17;;;;;;;26.77;17.20;;;;;;;;;;5051688;28;20577;-80
2022/12/30 08:11:42;;;;;;;30.38;18.88;;;;;;;;;;5051463;28;20040;-79
2022/12/30 08:14:08;;;;;;;28.10;17.80;;;;;;;;;;5033961;28;20143;-80
2022/12/30 08:19:17;;;;;;;34.60;19.80;;;;;;;;;;5051577;28;20558;-79
2022/12/30 08:21:43;;;;;;;32.63;18.75;;;;;;;;;;5051615;28;20064;-78
2022/12/30 08:24:08;;;;;;;30.90;19.55;;;;;;;;;;5051498;28;20037;-78
2022/12/30 08:26:34;;;;;;;37.28;19.42;;;;;;;;;;5051211;28;20041;-78
2022/12/30 08:28:59;;;;;;;33.88;20.48;;;;;;;;;;5034110;28;20107;-78
2022/12/30 08:31:26;;;;;;;31.38;18.33;;;;;;;;;;5051498;28;20036;-80
2022/12/30 08:33:51;;;;;;;34.92;21.23;;;;;;;;;;5033875;28;20039;-79
2022/12/30 08:36:18;;;;;;;32.65;21.13;;;;;;;;;;5033813;28;20021;-80
2022/12/30 08:38:45;;;;;;;33.60;19.58;;;;;;;;;;5033405;28;20052;-79
2022/12/30 08:41:20;;;;;;;33.35;20.92;;;;;;;;;;5017058;28;20032;-79
2022/12/30 08:43:46;;;;;;;37.53;20.00;;;;;;;;;;5017041;28;20047;-79
2022/12/30 08:46:11;;;;;;;36.17;21.27;;;;;;;;;;5033489;28;20068;-80
2022/12/30 08:48:37;;;;;;;39.72;22.80;;;;;;;;;;5033000;28;20527;-79
2022/12/30 08:51:03;;;;;;;35.92;20.92;;;;;;;;;;5033221;28;20054;-80
2022/12/30 08:53:53;;;;;;;34.42;20.58;;;;;;;;;;5051450;28;20086;-79
2022/12/30 08:56:20;;;;;;;34.67;21.33;;;;;;;;;;5052241;28;20474;-79
2022/12/30 08:58:45;;;;;;;33.55;19.85;;;;;;;;;;5050942;28;20032;-80
2022/12/30 09:01:12;;;;;;;39.65;22.40;;;;;;;;;;5033662;28;20094;-80
2022/12/30 09:03:37;;;;;;;37.20;22.38;;;;;;;;;;5033350;28;20483;-80
2022/12/30 09:06:03;;;;;;;39.97;22.65;;;;;;;;;;5051216;28;20045;-79
2022/12/30 09:08:28;;;;;;;36.95;22.08;;;;;;;;;;5016638;28;20029;-80
2022/12/30 09:11:01;;;;;;;37.20;22.65;;;;;;;;;;5050638;28;20044;-81
2022/12/30 09:16:12;;;;;;;40.25;22.38;;;;;;;;;;5050671;28;20086;-79
2022/12/30 09:21:21;;;;;;;35.78;21.48;;;;;;;;;;5030609;28;20037;-79
2022/12/30 09:23:47;;;;;;;41.63;22.98;;;;;;;;;;5030786;28;20106;-79
2022/12/30 09:26:13;;;;;;;39.47;23.48;;;;;;;;;;5029233;28;20042;-80
2022/12/30 09:28:38;;;;;;;34.30;20.73;;;;;;;;;;5029399;28;20603;-80
2022/12/30 09:31:05;;;;;;;32.97;19.23;;;;;;;;;;5030702;28;20029;-78
2022/12/30 09:33:30;;;;;;;38.75;22.80;;;;;;;;;;5030625;28;20030;-79
2022/12/30 09:35:56;;;;;;;44.00;23.90;;;;;;;;;;5030654;28;20049;-80
2022/12/30 09:38:21;;;;;;;37.58;21.80;;;;;;;;;;5030491;28;20106;-80
2022/12/30 09:40:57;;;;;;;35.78;21.42;;;;;;;;;;5030488;28;20092;-79
2022/12/30 09:43:32;;;;;;;37.95;20.48;;;;;;;;;;5012920;28;20390;-79
2022/12/30 09:46:23;;;;;;;37.22;21.83;;;;;;;;;;5030785;28;20511;-79
2022/12/30 09:48:59;;;;;;;40.80;23.02;;;;;;;;;;5027606;28;20123;-80
2022/12/30 09:51:33;;;;;;;39.45;22.67;;;;;;;;;;5029113;28;20037;-79
2022/12/30 09:54:02;;;;;;;38.92;22.55;;;;;;;;;;5030454;28;20053;-79
2022/12/30 09:56:29;;;;;;;44.03;22.60;;;;;;;;;;5030674;28;20579;-79
2022/12/30 09:58:54;;;;;;;36.80;21.95;;;;;;;;;;5030990;28;20045;-79
2022/12/30 10:01:27;;;;;;;41.42;23.75;;;;;;;;;;5029182;28;20044;-79
2022/12/30 10:03:56;;;;;;;35.63;21.48;;;;;;;;;;5030193;28;20040;-80
2022/12/30 10:09:28;;;;;;;44.83;23.60;;;;;;;;;;5029097;28;20444;-80
2022/12/30 10:12:06;;;;;;;44.88;24.90;;;;;;;;;;5030668;28;20051;-78
2022/12/30 10:14:51;;;;;;;42.08;24.98;;;;;;;;;;5028995;28;20052;-80
2022/12/30 10:17:35;;;;;;;39.60;22.08;;;;;;;;;;5036744;28;20052;-79
2022/12/30 10:20:03;;;;;;;41.55;22.35;;;;;;;;;;5049978;28;20041;-80
2022/12/30 10:22:44;;;;;;;42.88;24.00;;;;;;;;;;5050405;28;20079;-82
2022/12/30 10:25:22;;;;;;;41.97;24.45;;;;;;;;;;5054273;28;20033;-78
2022/12/30 10:27:48;;;;;;;43.03;23.92;;;;;;;;;;5035975;28;20058;-79
2022/12/30 10:30:14;;;;;;;40.55;24.30;;;;;;;;;;5035991;28;20032;-79
2022/12/30 10:32:39;;;;;;;;;;;;;;;;;;5036434;28;20036;-79
2022/12/30 10:35:19;;;;;;;43.25;24.25;;;;;;;;;;5035902;28;19908;-80
2022/12/30 10:37:44;;;;;;;44.17;24.95;;;;;;;;;;5053770;28;20033;-80
2022/12/30 10:40:13;;;;;;;45.60;24.83;;;;;;;;;;5053631;28;20587;-80
2022/12/30 10:42:54;;;;;;;44.80;23.85;;;;;;;;;;5053315;28;20056;-80
2022/12/30 10:45:27;;;;;;;42.05;24.17;;;;;;;;;;5035837;28;20032;-80
2022/12/30 10:48:02;;;;;;;44.50;25.05;;;;;;;;;;5053216;28;20043;-79
2022/12/30 10:53:25;;;;;;;44.83;23.45;;;;;;;;;;5053014;28;20036;-79
2022/12/30 10:55:55;;;;;;;45.28;22.17;;;;;;;;;;5035434;28;20036;-79
2022/12/30 10:58:33;;;;;;;45.90;24.58;;;;;;;;;;5035117;28;20067;-79
2022/12/30 11:00:58;;;;;;;47.08;25.70;;;;;;;;;;5035213;28;20519;-80
2022/12/30 11:06:15;;;;;;;40.13;23.38;;;;;;;;;;5034672;28;20135;-78
2022/12/30 11:08:41;;;;;;;45.28;24.30;;;;;;;;;;5035231;28;20029;-79
2022/12/30 11:16:40;;;;;;;45.28;25.05;;;;;;;;;;5037376;28;20041;-79
2022/12/30 11:19:06;;;;;;;46.55;23.73;;;;;;;;;;5052667;28;20056;-78
2022/12/30 11:21:33;;;;;;;44.88;23.50;;;;;;;;;;5035049;28;20474;-78
2022/12/30 11:23:58;;;;;;;42.80;23.75;;;;;;;;;;5034825;28;20076;-79
2022/12/30 11:26:25;;;;;;;50.28;25.65;;;;;;;;;;5052703;28;20068;-79
2022/12/30 11:28:50;;;;;;;42.72;22.55;;;;;;;;;;5034489;28;20029;-79
2022/12/30 11:31:16;;;;;;;41.30;24.00;;;;;;;;;;5052431;28;20037;-79
2022/12/30 11:33:44;;;;;;;43.20;22.80;;;;;;;;;;5052256;28;20032;-78
2022/12/30 11:36:14;;;;;;;43.45;23.15;;;;;;;;;;5052146;28;20044;-80
2022/12/30 11:38:43;;;;;;;41.92;23.27;;;;;;;;;;5052185;28;20021;-79
2022/12/30 11:41:18;;;;;;;49.80;24.48;;;;;;;;;;5034718;28;20094;-81
2022/12/30 11:46:33;;;;;;;45.65;23.98;;;;;;;;;;5052184;28;20040;-78
2022/12/30 11:49:02;;;;;;;42.42;23.60;;;;;;;;;;5051901;28;20040;-80
2022/12/30 11:54:27;;;;;;;46.92;25.27;;;;;;;;;;5036677;28;20407;-78
2022/12/30 11:57:33;;;;;;;57.42;24.48;;;;;;;;;;5034793;28;20040;-79
2022/12/30 12:00:18;;;;;;;47.40;26.40;;;;;;;;;;5035373;28;20045;-79
2022/12/30 12:21:01;;;;;;;53.45;25.73;;;;;;;;;;4909987;29;20111;-80
2022/12/30 12:39:02;;;;;;;59.28;25.75;;;;;;;;;;4748712;30;20096;-79
2022/12/30 12:48:04;;;;;;;47.25;24.23;;;;;;;;;;4924897;28;20534;-80
2022/12/30 13:09:02;;;;;;;;;;;;;;;;;;;;;
2022/12/30 13:12:58;;;;;;;;;;;;;;;;;;;;;
2022/12/30 13:18:45;;;;;;;54.40;24.13;;;;;;;;;;4819229;29;20095;-80
2022/12/30 13:21:29;;;;;;;46.70;23.13;;;;;;;;;;4831169;28;20530;-78
2022/12/30 13:24:04;;;;;;;56.55;26.23;;;;;;;;;;4976782;28;20040;-80
2022/12/30 13:26:29;;;;;;;50.22;24.50;;;;;;;;;;5050558;28;20037;-80
2022/12/30 13:28:55;;;;;;;53.22;25.33;;;;;;;;;;5050480;28;20064;-80
2022/12/30 13:34:08;;;;;;;;;;;;;;;;;;5050796;28;20338;-78
2022/12/30 13:36:37;;;;;;;50.78;24.42;;;;;;;;;;5050071;28;19935;-79
2022/12/30 13:39:02;;;;;;;48.65;23.23;;;;;;;;;;5032525;28;20032;-79
2022/12/30 13:41:38;;;;;;;50.83;23.65;;;;;;;;;;5050078;28;20484;-79
2022/12/30 13:44:04;;;;;;;48.75;24.05;;;;;;;;;;5032558;28;20455;-78
2022/12/30 13:46:31;;;;;;;50.80;24.23;;;;;;;;;;5032486;28;20064;-79
2022/12/30 13:49:01;;;;;;;48.08;23.75;;;;;;;;;;5015989;28;20029;-79
2022/12/30 13:51:27;;;;;;;48.45;24.50;;;;;;;;;;5032445;28;20124;-79
2022/12/30 13:53:56;;;;;;;53.00;26.77;;;;;;;;;;5032632;28;20116;-79
2022/12/30 13:56:34;;;;;;;59.72;27.13;;;;;;;;;;5049893;28;20040;-79
2022/12/30 13:59:00;;;;;;;48.90;24.45;;;;;;;;;;5053623;28;20128;-79
2022/12/30 14:01:29;;;;;;;51.20;25.85;;;;;;;;;;5019548;28;20120;-79
2022/12/30 14:04:04;;;;;;;55.65;25.65;;;;;;;;;;5054314;28;20075;-79
2022/12/30 14:06:50;;;;;;;50.80;25.40;;;;;;;;;;5054003;28;20033;-78
2022/12/30 14:09:25;;;;;;;50.97;25.77;;;;;;;;;;5053466;28;20052;-79
2022/12/30 14:12:06;;;;;;;54.28;26.05;;;;;;;;;;5036126;28;20083;-79
2022/12/30 14:17:34;;;;;;;48.45;24.35;;;;;;;;;;5022568;28;20036;-79
2022/12/30 14:20:07;;;;;;;47.60;24.45;;;;;;;;;;5019319;28;20235;-78
2022/12/30 14:22:35;;;;;;;51.47;24.20;;;;;;;;;;5035958;28;20032;-79
2022/12/30 14:25:02;;;;;;;45.60;24.35;;;;;;;;;;5053649;28;20033;-79
2022/12/30 14:27:29;;;;;;;50.20;25.60;;;;;;;;;;5036357;28;20033;-78
2022/12/30 14:30:04;;;;;;;49.38;25.55;;;;;;;;;;5053563;28;20400;-80
2022/12/30 14:32:30;;;;;;;48.70;24.90;;;;;;;;;;5019291;28;20110;-78
2022/12/30 14:34:59;;;;;;;48.70;24.73;;;;;;;;;;5035369;28;20052;-79
2022/12/30 14:37:24;;;;;;;49.17;23.50;;;;;;;;;;5053525;28;20036;-80
2022/12/30 14:39:49;;;;;;;54.83;24.05;;;;;;;;;;5019150;28;20032;-78
2022/12/30 14:42:30;;;;;;;47.15;23.08;;;;;;;;;;5053416;28;20527;-80
2022/12/30 14:44:59;;;;;;;49.20;25.00;;;;;;;;;;5035181;28;20037;-79
2022/12/30 14:47:38;;;;;;;47.15;23.77;;;;;;;;;;5035452;28;20037;-79
2022/12/30 14:50:04;;;;;;;50.97;24.88;;;;;;;;;;5035396;28;20036;-79
2022/12/30 14:52:29;;;;;;;60.58;27.25;;;;;;;;;;5035502;28;20025;-78
2022/12/30 14:55:10;;;;;;;55.78;25.23;;;;;;;;;;5018480;28;20037;-79
2022/12/30 14:57:37;;;;;;;54.60;27.27;;;;;;;;;;5053205;28;20500;-78
2022/12/30 15:02:50;;;;;;;59.78;28.45;;;;;;;;;;5035077;28;20516;-79
2022/12/30 15:05:42;;;;;;;49.90;25.92;;;;;;;;;;5035291;28;20094;-79
2022/12/30 15:08:09;;;;;;;57.85;27.75;;;;;;;;;;5048720;28;20049;-78
2022/12/30 15:13:20;;;;;;;60.20;27.65;;;;;;;;;;5052652;28;20071;-79
2022/12/30 15:15:53;;;;;;;55.72;27.55;;;;;;;;;;5018462;28;20024;-78
2022/12/30 15:21:18;;;;;;;49.95;25.48;;;;;;;;;;5034671;28;20135;-79
2022/12/30 15:23:44;;;;;;;58.97;26.75;;;;;;;;;;5052577;28;20090;-80
2022/12/30 15:28:54;;;;;;;55.47;26.17;;;;;;;;;;5037223;28;20029;-78
2022/12/30 15:31:21;;;;;;;51.58;25.17;;;;;;;;;;5052584;28;20131;-78
2022/12/30 15:34:01;;;;;;;53.33;25.92;;;;;;;;;;5052105;28;20067;-79
2022/12/30 15:36:27;;;;;;;59.17;27.73;;;;;;;;;;5052336;28;20097;-79
2022/12/30 15:38:53;;;;;;;51.58;26.38;;;;;;;;;;5052265;28;20028;-80
2022/12/30 15:41:19;;;;;;;54.17;26.75;;;;;;;;;;5052099;28;20041;-78
2022/12/30 15:43:44;;;;;;;57.05;26.17;;;;;;;;;;5034343;28;20037;-79
2022/12/30 15:46:20;;;;;;;61.08;26.23;;;;;;;;;;5052036;28;20048;-80
2022/12/30 15:48:46;;;;;;;53.70;26.60;;;;;;;;;;5034298;28;20040;-80
2022/12/30 15:51:15;;;;;;;60.45;27.40;;;;;;;;;;5052234;28;20087;-79
2022/12/30 15:53:48;;;;;;;55.97;25.95;;;;;;;;;;5034016;28;20114;-79
2022/12/30 15:56:14;;;;;;;50.60;25.67;;;;;;;;;;5034156;28;20055;-79
2022/12/30 15:58:43;;;;;;;55.92;25.40;;;;;;;;;;5017682;28;20033;-78
2022/12/30 16:01:13;;;;;;;55.30;26.67;;;;;;;;;;5034207;28;20514;-81
2022/12/30 16:03:38;;;;;;;59.60;28.15;;;;;;;;;;5034098;28;20045;-79
2022/12/30 16:06:04;;;;;;;59.92;27.92;;;;;;;;;;5034387;28;20055;-79
2022/12/30 16:08:33;;;;;;;60.10;26.77;;;;;;;;;;5034162;28;20110;-79
2022/12/30 16:11:08;;;;;;;58.80;27.33;;;;;;;;;;5017879;28;20183;-80
2022/12/30 16:13:38;;;;;;;58.80;25.38;;;;;;;;;;5017364;28;20638;-80
2022/12/30 16:16:05;;;;;;;55.60;26.85;;;;;;;;;;5033899;28;20064;-79
2022/12/30 16:18:31;;;;;;;58.20;26.23;;;;;;;;;;5017210;28;20041;-79
2022/12/30 16:21:01;;;;;;;56.92;25.77;;;;;;;;;;5050410;28;20049;-79
2022/12/30 16:23:51;;;;;;;61.22;27.70;;;;;;;;;;5051651;28;20407;-80
2022/12/30 16:26:24;;;;;;;67.60;30.30;;;;;;;;;;5033228;28;20041;-78
2022/12/30 16:28:49;;;;;;;63.10;28.40;;;;;;;;;;5033805;28;20044;-80
2022/12/30 16:31:15;;;;;;;61.60;27.88;;;;;;;;;;5033431;28;20119;-79
2022/12/30 16:33:40;;;;;;;;;;;;;;;;;;5017213;28;20047;-79
2022/12/30 16:38:54;;;;;;;66.88;27.73;;;;;;;;;;5035999;28;20492;-80
2022/12/30 16:45:15;;;;;;;66.75;27.83;;;;;;;;;;4912972;29;20088;-81
2022/12/30 16:47:41;;;;;;;64.45;29.25;;;;;;;;;;4995115;28;20041;-80
2022/12/30 16:50:07;;;;;;;62.28;27.92;;;;;;;;;;5033176;28;20032;-80
2022/12/30 17:03:30;;;;;;;68.13;26.98;;;;;;;;;;5051123;28;20131;-79
